Time;durP1;ratioP1;P1;durP2;ratioP2;P2;SDS_P1;SDS_P2;PMS_P1;PMS_P2;Temp;Humidity;BMP_temperature;BMP_pressure;BME280_temperature;BME280_humidity;BME280_pressure;Samples;Min_cycle;Max_cycle;Signal;HPM_P1;HPM_P2
2022/04/18 00:01:34;;;;;;;4.68;2.85;;;;;;;3.43;62.69;95054.78;5066217;28;20487;-71
2022/04/18 00:04:00;;;;;;;1.85;1.17;;;;;;;3.42;62.87;95047.81;5049006;28;20043;-70
2022/04/18 00:06:25;;;;;;;2.22;1.00;;;;;;;3.46;62.34;95057.19;5048774;28;20051;-70
2022/04/18 00:08:50;;;;;;;1.63;0.93;;;;;;;3.49;62.85;95048.09;5066104;28;20025;-70
2022/04/18 00:11:16;;;;;;;1.95;1.10;;;;;;;3.39;63.08;95037.50;5067025;28;20481;-70
2022/04/18 00:13:41;;;;;;;1.50;0.90;;;;;;;3.32;62.12;95039.88;5065769;28;20613;-70
2022/04/18 00:16:07;;;;;;;2.38;1.20;;;;;;;3.30;62.77;95043.66;5066660;28;20035;-70
2022/04/18 00:18:32;;;;;;;1.30;0.70;;;;;;;3.36;62.19;95047.53;5066000;28;20405;-70
2022/04/18 00:20:57;;;;;;;1.50;0.82;;;;;;;3.36;62.67;95044.88;5066365;28;20044;-70
2022/04/18 00:23:23;;;;;;;1.40;0.80;;;;;;;3.43;63.26;95041.53;5066192;28;20031;-69
2022/04/18 00:25:48;;;;;;;1.40;0.85;;;;;;;3.51;62.36;95042.63;5065996;28;20040;-70
2022/04/18 00:28:15;;;;;;;2.70;1.30;;;;;;;3.49;61.92;95040.13;5066497;28;20398;-71
2022/04/18 00:30:41;;;;;;;1.70;1.00;;;;;;;3.43;61.33;95040.69;5065566;28;20025;-70
2022/04/18 00:33:08;;;;;;;1.80;0.90;;;;;;;3.49;61.86;95034.81;5066322;28;20086;-70
2022/04/18 00:35:34;;;;;;;1.98;1.10;;;;;;;3.44;61.62;95032.59;5065487;28;20035;-71
2022/04/18 00:37:59;;;;;;;2.03;1.15;;;;;;;3.47;61.44;95031.47;5066182;28;20025;-72
2022/04/18 00:40:25;;;;;;;2.58;1.20;;;;;;;3.48;61.68;95030.50;5065679;28;20473;-70
2022/04/18 00:42:50;;;;;;;3.25;1.10;;;;;;;3.52;61.98;95029.22;5066043;28;20025;-70
2022/04/18 00:45:16;;;;;;;1.45;0.90;;;;;;;3.49;61.92;95036.63;5047872;28;20029;-69
2022/04/18 00:47:41;;;;;;;1.70;1.00;;;;;;;3.54;61.86;95027.28;5030914;28;20434;-69
2022/04/18 00:50:07;;;;;;;2.40;1.35;;;;;;;3.54;62.23;95026.44;5065778;28;20591;-72
2022/04/18 00:52:33;;;;;;;4.05;1.90;;;;;;;3.50;61.73;95028.53;5047374;28;20038;-70
2022/04/18 00:54:58;;;;;;;3.30;1.90;;;;;;;3.49;61.43;95024.22;5030898;28;20405;-71
2022/04/18 00:57:23;;;;;;;2.40;1.33;;;;;;;3.44;62.58;95024.66;5047191;28;20494;-69
2022/04/18 00:59:49;;;;;;;2.20;1.20;;;;;;;3.40;62.34;95019.78;5065685;28;20031;-70
2022/04/18 01:02:14;;;;;;;2.03;1.00;;;;;;;3.40;62.29;95017.13;5047320;28;20036;-70
2022/04/18 01:04:40;;;;;;;2.00;0.98;;;;;;;3.36;62.30;95021.03;5065556;28;20478;-71
2022/04/18 01:07:05;;;;;;;2.10;1.20;;;;;;;3.38;62.44;95011.13;5065444;28;20179;-70
2022/04/18 01:09:32;;;;;;;1.77;0.93;;;;;;;3.32;62.63;95016.00;5047085;28;20028;-70
2022/04/18 01:11:58;;;;;;;2.25;1.20;;;;;;;3.37;62.35;95018.22;5031083;28;20145;-71
2022/04/18 01:14:24;;;;;;;1.77;1.00;;;;;;;3.30;62.24;95015.34;5064957;28;20025;-71
2022/04/18 01:16:50;;;;;;;4.47;1.02;;;;;;;3.37;62.04;95009.47;5047638;28;20090;-70
2022/04/18 01:19:15;;;;;;;2.55;1.20;;;;;;;3.33;62.37;95006.25;5064610;28;20091;-70
2022/04/18 01:21:40;;;;;;;2.00;1.05;;;;;;;3.28;62.85;95008.50;5065881;28;20025;-70
2022/04/18 01:28:58;;;;;;;1.45;0.90;;;;;;;3.29;63.43;95005.69;5046931;28;20483;-71
2022/04/18 01:29:35;;;;;;;1.63;0.90;;;;;;;3.28;62.96;95001.38;5065460;28;20048;-70
2022/04/18 01:32:00;;;;;;;3.08;1.20;;;;;;;3.30;62.52;94996.78;5064327;28;20024;-70
2022/04/18 01:34:26;;;;;;;1.70;1.00;;;;;;;3.26;62.36;94998.03;5065326;28;20036;-70
2022/04/18 01:36:51;;;;;;;1.80;0.93;;;;;;;3.23;62.97;94998.31;5064747;28;20031;-70
2022/04/18 01:39:17;;;;;;;1.67;0.88;;;;;;;3.24;62.74;94989.38;5064866;28;20021;-70
2022/04/18 01:41:42;;;;;;;2.13;0.95;;;;;;;3.24;61.94;94989.38;5065296;28;20029;-70
2022/04/18 01:44:08;;;;;;;1.63;1.00;;;;;;;3.24;62.79;94984.06;5064289;28;20078;-70
2022/04/18 01:46:33;;;;;;;1.67;0.80;;;;;;;3.22;63.38;94981.56;5065189;28;20024;-71
2022/04/18 01:48:58;;;;;;;1.23;0.80;;;;;;;3.19;63.27;94970.44;5046433;28;20029;-70
2022/04/18 01:51:24;;;;;;;1.02;0.70;;;;;;;3.23;63.02;94974.47;5064854;28;20074;-70
2022/04/18 01:53:49;;;;;;;1.13;0.63;;;;;;;3.28;62.87;94977.53;5064474;28;20020;-70
2022/04/18 01:56:15;;;;;;;2.08;1.00;;;;;;;3.19;62.80;94970.44;5064734;28;20021;-71
2022/04/18 01:58:40;;;;;;;1.70;0.80;;;;;;;3.24;62.84;94968.16;5064787;28;20020;-71
2022/04/18 02:01:06;;;;;;;1.75;0.90;;;;;;;3.19;62.64;94970.44;5064426;28;20031;-70
2022/04/18 02:03:32;;;;;;;1.75;0.85;;;;;;;3.16;62.88;94965.44;5047268;28;20024;-69
2022/04/18 02:05:57;;;;;;;1.40;0.80;;;;;;;3.15;63.13;94966.38;5046199;28;20235;-70
2022/04/18 02:08:23;;;;;;;1.55;0.80;;;;;;;3.19;62.27;94970.44;5066794;28;20123;-71
2022/04/18 02:10:48;;;;;;;1.48;0.85;;;;;;;3.24;62.21;94967.34;5068607;28;20111;-69
2022/04/18 02:13:14;;;;;;;1.42;0.80;;;;;;;3.26;62.88;94962.72;5050972;28;20063;-70
2022/04/18 02:15:39;;;;;;;1.35;0.68;;;;;;;3.20;62.29;94962.34;5050552;28;20099;-69
2022/04/18 02:18:05;;;;;;;1.63;0.75;;;;;;;3.21;62.71;94958.69;5068749;28;20028;-70
2022/04/18 02:20:30;;;;;;;1.10;0.70;;;;;;;3.18;62.46;94952.84;5050752;28;20111;-70
2022/04/18 02:22:59;;;;;;;2.00;0.73;;;;;;;3.13;62.53;94950.63;5068358;28;20483;-71
2022/04/18 02:25:24;;;;;;;1.65;0.90;;;;;;;3.21;62.84;94964.00;5068623;28;20048;-69
2022/04/18 02:27:51;;;;;;;1.40;0.80;;;;;;;3.21;63.14;94955.19;5068243;28;20024;-71
2022/04/18 02:30:17;;;;;;;1.30;0.80;;;;;;;3.27;62.25;94954.66;5068586;28;20056;-70
2022/04/18 02:32:48;;;;;;;1.20;0.80;;;;;;;3.24;62.65;94946.16;5068149;28;20380;-70
2022/04/18 02:35:15;;;;;;;1.70;0.65;;;;;;;3.23;62.31;94950.59;5068720;28;20033;-71
2022/04/18 02:37:40;;;;;;;1.30;0.70;;;;;;;3.11;63.29;94946.47;5050514;28;20031;-70
2022/04/18 02:40:06;;;;;;;1.42;0.85;;;;;;;3.13;63.48;94950.63;5050322;28;20315;-71
2022/04/18 02:42:32;;;;;;;2.80;0.90;;;;;;;3.18;63.04;94952.84;5068970;28;20031;-71
2022/04/18 02:44:57;;;;;;;1.00;0.57;;;;;;;3.16;63.72;94950.34;5067679;28;20047;-70
2022/04/18 02:47:23;;;;;;;1.05;0.60;;;;;;;3.20;63.02;94945.59;5068150;28;20032;-70
2022/04/18 02:49:50;;;;;;;0.90;0.55;;;;;;;3.12;63.09;94945.47;5067944;28;20102;-70
2022/04/18 02:52:16;;;;;;;1.02;0.60;;;;;;;3.15;63.53;94937.22;5068684;28;20025;-70
2022/04/18 02:54:43;;;;;;;1.20;0.70;;;;;;;3.13;63.86;94939.22;5067993;28;20025;-70
2022/04/18 02:57:11;;;;;;;0.90;0.60;;;;;;;3.15;64.03;94942.53;5050513;28;20021;-71
2022/04/18 02:59:36;;;;;;;0.95;0.60;;;;;;;3.17;64.31;94943.22;5050203;28;20504;-70
2022/04/18 03:02:02;;;;;;;1.13;0.63;;;;;;;3.09;64.24;94936.81;5067574;28;20075;-70
2022/04/18 03:04:27;;;;;;;2.20;0.90;;;;;;;3.12;64.17;94937.50;5068086;28;20024;-71
2022/04/18 03:06:53;;;;;;;1.08;0.65;;;;;;;3.12;64.08;94932.22;5049526;28;20410;-71
2022/04/18 03:09:19;;;;;;;1.23;0.70;;;;;;;3.13;63.68;94933.91;5068010;28;20044;-70
2022/04/18 03:11:44;;;;;;;1.10;0.68;;;;;;;3.11;62.80;94933.22;5067558;28;20032;-72
2022/04/18 03:14:09;;;;;;;1.13;0.70;;;;;;;3.06;63.43;94934.44;5068138;28;20017;-71
2022/04/18 03:16:35;;;;;;;1.40;0.70;;;;;;;3.01;63.90;94928.78;5067279;28;20055;-72
2022/04/18 03:19:00;;;;;;;0.80;0.60;;;;;;;3.03;63.47;94933.94;5066956;28;20410;-71
2022/04/18 03:21:26;;;;;;;1.30;0.70;;;;;;;3.10;63.59;94932.38;5067792;28;20147;-70
2022/04/18 03:23:52;;;;;;;1.00;0.55;;;;;;;3.06;63.06;94934.44;5067249;28;20089;-71
2022/04/18 03:26:18;;;;;;;1.50;0.82;;;;;;;3.12;63.16;94942.81;5049829;28;20050;-71
2022/04/18 03:28:43;;;;;;;1.73;0.80;;;;;;;3.11;63.36;94941.16;5066888;28;20028;-71
2022/04/18 03:31:09;;;;;;;1.42;0.85;;;;;;;3.09;64.08;94936.81;5067634;28;20029;-69
2022/04/18 03:33:34;;;;;;;3.13;1.30;;;;;;;3.05;63.54;94938.09;5066735;28;20024;-71
2022/04/18 03:41:28;;;;;;;1.45;0.77;;;;;;;3.08;63.75;94940.47;5066954;28;20498;-70
2022/04/18 03:43:53;;;;;;;2.45;1.20;;;;;;;3.03;62.81;94929.44;5067082;28;20025;-71
2022/04/18 03:46:19;;;;;;;3.35;1.67;;;;;;;3.06;62.61;94942.41;5066736;28;20024;-71
2022/04/18 03:48:44;;;;;;;2.22;1.10;;;;;;;3.04;62.40;94940.88;5067031;28;20230;-71
2022/04/18 03:51:10;;;;;;;2.10;1.30;;;;;;;2.84;62.84;94935.59;5066911;28;20024;-71
2022/04/18 03:53:35;;;;;;;2.58;1.40;;;;;;;2.93;62.69;94928.63;5066625;28;20889;-72
2022/04/18 03:56:00;;;;;;;2.63;1.60;;;;;;;2.93;62.91;94933.94;5067260;28;20374;-70
2022/04/18 03:58:26;;;;;;;2.25;1.38;;;;;;;2.91;63.13;94936.72;5066290;28;20032;-71
2022/04/18 04:00:51;;;;;;;2.72;1.75;;;;;;;2.94;63.97;94930.31;5066816;28;20078;-72
2022/04/18 04:03:17;;;;;;;3.28;2.03;;;;;;;2.98;63.69;94942.31;5066469;28;20028;-71
2022/04/18 04:05:42;;;;;;;4.45;2.00;;;;;;;2.99;63.15;94929.88;5066785;28;20040;-71
2022/04/18 04:08:07;;;;;;;3.88;1.73;;;;;;;3.01;63.11;94934.06;5066373;28;20029;-70
2022/04/18 04:10:33;;;;;;;3.13;1.58;;;;;;;3.03;62.93;94931.28;5066776;28;20036;-70
2022/04/18 04:12:59;;;;;;;3.53;1.83;;;;;;;2.99;62.94;94946.63;5066459;28;20086;-70
2022/04/18 04:15:24;;;;;;;4.05;1.67;;;;;;;2.96;62.82;94939.81;5066048;28;20028;-71
2022/04/18 04:17:50;;;;;;;3.88;2.05;;;;;;;2.89;62.18;94948.44;5066388;28;20035;-69
2022/04/18 04:20:15;;;;;;;3.15;1.73;;;;;;;2.91;62.93;94943.84;5065970;28;20518;-70
2022/04/18 04:22:45;;;;;;;3.53;2.05;;;;;;;2.91;63.40;94934.09;5066568;28;20100;-70
2022/04/18 04:25:10;;;;;;;3.53;1.95;;;;;;;2.87;63.57;94935.31;5065755;28;20048;-70
2022/04/18 04:27:35;;;;;;;3.58;1.92;;;;;;;2.88;63.51;94938.81;5048561;28;20043;-70
2022/04/18 04:30:01;;;;;;;3.75;2.60;;;;;;;2.81;63.45;94936.75;5047235;28;20043;-71
2022/04/18 04:32:26;;;;;;;4.18;2.10;;;;;;;2.83;62.58;94942.75;5047810;28;20411;-69
2022/04/18 04:34:52;;;;;;;3.95;2.35;;;;;;;2.92;63.14;94950.78;5066324;28;20506;-71
2022/04/18 04:37:17;;;;;;;4.10;2.28;;;;;;;2.89;63.81;94945.78;5065706;28;20031;-70
2022/04/18 04:39:43;;;;;;;3.47;2.25;;;;;;;2.99;63.13;94951.06;5048311;28;20036;-70
2022/04/18 04:42:08;;;;;;;4.50;2.40;;;;;;;3.05;63.12;94958.44;5065518;28;20028;-70
2022/04/18 04:44:34;;;;;;;3.03;1.90;;;;;;;3.10;62.74;94948.25;5066317;28;20032;-71
2022/04/18 04:46:59;;;;;;;3.63;2.28;;;;;;;3.17;63.04;94952.03;5065188;28;20028;-72
2022/04/18 04:49:25;;;;;;;3.50;2.50;;;;;;;3.20;62.39;94958.84;5031483;28;20032;-71
2022/04/18 04:51:50;;;;;;;4.40;2.55;;;;;;;3.27;62.49;94959.13;5065973;28;20410;-70
2022/04/18 04:54:16;;;;;;;5.28;3.13;;;;;;;3.29;62.37;94957.16;5065368;28;20445;-71
2022/04/18 04:56:41;;;;;;;3.70;2.30;;;;;;;3.22;62.75;94948.94;5065958;28;20059;-69
2022/04/18 04:59:07;;;;;;;7.90;2.38;;;;;;;3.29;62.25;94957.97;5064844;28;20024;-72
2022/04/18 05:01:33;;;;;;;3.92;2.75;;;;;;;3.28;61.81;94948.38;5065794;28;20032;-70
2022/04/18 05:03:58;;;;;;;4.05;2.28;;;;;;;3.35;62.12;94953.94;5065438;28;20033;-71
2022/04/18 05:06:24;;;;;;;5.40;2.60;;;;;;;3.33;61.77;94951.44;5031327;28;20170;-70
2022/04/18 05:08:49;;;;;;;3.78;2.20;;;;;;;3.30;62.10;94957.03;5065237;28;20530;-71
2022/04/18 05:11:15;;;;;;;3.97;1.95;;;;;;;3.36;61.83;94954.75;5064985;28;20028;-70
2022/04/18 05:13:40;;;;;;;3.30;2.13;;;;;;;3.34;62.66;94960.19;5065444;28;20145;-71
2022/04/18 05:16:06;;;;;;;3.75;2.08;;;;;;;3.29;62.41;94957.16;5064469;28;20104;-70
2022/04/18 05:18:32;;;;;;;4.20;2.40;;;;;;;3.39;62.79;94959.75;5065542;28;20024;-72
2022/04/18 05:20:57;;;;;;;3.40;2.25;;;;;;;3.50;61.74;94964.91;5064833;28;20028;-70
2022/04/18 05:23:23;;;;;;;2.28;1.80;;;;;;;3.46;61.56;94961.72;5065275;28;20437;-71
2022/04/18 05:25:48;;;;;;;3.25;2.03;;;;;;;3.48;62.13;94964.22;5064713;28;20416;-71
2022/04/18 05:28:14;;;;;;;3.28;1.95;;;;;;;3.49;62.35;94965.88;5047237;28;20047;-72
2022/04/18 05:30:40;;;;;;;3.80;1.92;;;;;;;3.48;62.35;94966.03;5014124;28;20529;-70
2022/04/18 05:33:06;;;;;;;3.45;1.90;;;;;;;3.56;62.64;94966.97;5064570;28;20028;-70
2022/04/18 05:35:32;;;;;;;3.85;1.88;;;;;;;3.55;62.01;94965.31;5047096;28;20052;-70
2022/04/18 05:37:57;;;;;;;3.08;1.88;;;;;;;3.62;61.26;94975.31;5064447;28;20051;-70
2022/04/18 05:40:22;;;;;;;5.75;2.00;;;;;;;3.59;61.24;94966.66;5047025;28;20026;-70
2022/04/18 05:42:48;;;;;;;2.58;1.63;;;;;;;3.58;61.72;94972.13;5064525;28;20097;-72
2022/04/18 05:45:13;;;;;;;4.28;1.92;;;;;;;3.68;61.32;94978.25;5064972;28;20025;-71
2022/04/18 05:47:39;;;;;;;2.95;1.70;;;;;;;3.78;61.61;94970.25;5064605;28;20024;-72
2022/04/18 05:50:05;;;;;;;4.10;1.98;;;;;;;3.86;62.12;94976.63;5065011;28;20025;-70
2022/04/18 05:52:31;;;;;;;9.93;5.82;;;;;;;3.92;61.30;94976.03;5030706;28;20025;-70
2022/04/18 05:54:56;;;;;;;5.78;1.90;;;;;;;3.98;60.58;94974.63;5064382;28;20529;-71
2022/04/18 05:57:22;;;;;;;3.25;1.88;;;;;;;3.96;60.28;94977.44;5064771;28;20329;-70
2022/04/18 05:59:48;;;;;;;2.80;1.67;;;;;;;4.06;60.30;94982.69;5064411;28;20521;-70
2022/04/18 06:02:13;;;;;;;4.03;1.73;;;;;;;4.08;59.73;94981.56;5064826;28;20055;-70
2022/04/18 06:04:39;;;;;;;3.28;1.90;;;;;;;4.03;59.95;94989.09;5064403;28;20045;-70
2022/04/18 06:07:05;;;;;;;3.92;2.03;;;;;;;4.11;59.50;94990.22;5047264;28;20024;-71
2022/04/18 06:09:30;;;;;;;3.40;2.10;;;;;;;4.23;60.90;94994.31;5064294;28;20036;-70
2022/04/18 06:11:56;;;;;;;4.85;2.00;;;;;;;4.09;60.51;94985.06;5064524;28;20025;-69
2022/04/18 06:14:21;;;;;;;2.90;1.85;;;;;;;4.20;60.00;94981.34;5064704;28;20032;-70
2022/04/18 06:16:46;;;;;;;2.85;1.77;;;;;;;4.37;59.37;94992.97;5064515;28;20016;-71
2022/04/18 06:19:12;;;;;;;5.72;1.88;;;;;;;4.36;59.92;94987.81;5064892;28;20021;-71
2022/04/18 06:21:37;;;;;;;4.05;1.80;;;;;;;4.44;58.63;94986.09;5063941;28;20013;-70
2022/04/18 06:24:03;;;;;;;4.28;2.35;;;;;;;4.45;58.94;94989.56;5065233;28;20032;-72
2022/04/18 06:26:28;;;;;;;3.58;2.10;;;;;;;4.54;59.56;94986.03;5063665;28;20058;-71
2022/04/18 06:28:54;;;;;;;2.20;1.60;;;;;;;4.60;58.90;94991.72;5046895;28;20517;-71
2022/04/18 06:31:19;;;;;;;3.60;1.85;;;;;;;4.68;58.71;94991.78;5064432;28;20538;-71
2022/04/18 06:33:45;;;;;;;3.15;1.80;;;;;;;4.68;58.06;94986.47;5064313;28;20028;-70
2022/04/18 06:36:10;;;;;;;4.03;1.90;;;;;;;4.62;58.49;94989.75;5064798;28;20039;-70
2022/04/18 06:38:35;;;;;;;5.32;2.00;;;;;;;4.76;58.58;94994.53;5063936;28;20030;-71
2022/04/18 06:41:02;;;;;;;3.30;1.70;;;;;;;4.68;58.29;94999.75;5064958;28;20025;-70
2022/04/18 06:43:27;;;;;;;2.72;1.60;;;;;;;4.68;57.98;94997.09;5063730;28;20025;-70
2022/04/18 06:45:52;;;;;;;2.95;1.88;;;;;;;4.60;58.52;94995.22;5064589;28;20031;-73
2022/04/18 06:48:18;;;;;;;4.15;2.58;;;;;;;4.88;59.38;94994.31;5046295;28;20456;-70
2022/04/18 06:50:45;;;;;;;5.80;1.90;;;;;;;5.06;57.95;95000.44;5045974;28;20399;-71
2022/04/18 06:53:11;;;;;;;3.13;1.55;;;;;;;4.94;58.05;95001.66;5046787;28;20028;-71
2022/04/18 06:58:21;;;;;;;2.55;1.65;;;;;;;5.21;56.79;94999.88;5068299;28;20054;-70
2022/04/18 07:00:46;;;;;;;2.53;1.65;;;;;;;5.32;57.22;95002.31;5067388;28;20367;-71
2022/04/18 07:03:12;;;;;;;3.33;1.52;;;;;;;5.22;57.00;95006.91;5067503;28;20514;-70
2022/04/18 07:05:39;;;;;;;2.50;1.90;;;;;;;5.18;57.10;95008.19;5067243;28;20043;-71
2022/04/18 07:08:05;;;;;;;2.92;1.70;;;;;;;5.12;56.22;95014.13;5067845;28;20056;-72
2022/04/18 07:10:31;;;;;;;3.28;2.08;;;;;;;5.29;57.90;95013.25;5050104;28;20064;-71
2022/04/18 07:12:56;;;;;;;3.05;1.70;;;;;;;5.09;57.47;95014.41;5067332;28;20027;-71
2022/04/18 07:15:21;;;;;;;3.00;1.90;;;;;;;5.38;58.83;95010.66;5068047;28;20036;-71
2022/04/18 07:17:47;;;;;;;3.70;1.80;;;;;;;5.52;56.52;95015.41;5032512;28;20032;-71
2022/04/18 07:20:12;;;;;;;3.88;1.92;;;;;;;5.70;56.05;95011.88;5050054;28;20502;-70
2022/04/18 07:22:41;;;;;;;3.13;1.95;;;;;;;5.74;55.40;95012.41;5067037;28;20029;-70
2022/04/18 07:25:07;;;;;;;3.67;1.75;;;;;;;5.74;55.43;95015.06;5049695;28;20045;-70
2022/04/18 07:27:32;;;;;;;3.33;2.08;;;;;;;5.93;55.22;95016.66;5067187;28;20033;-69
2022/04/18 07:29:58;;;;;;;5.22;2.10;;;;;;;5.81;54.37;95019.59;5067074;28;20028;-69
2022/04/18 07:32:23;;;;;;;6.30;1.88;;;;;;;5.88;54.96;95010.97;5067752;28;20033;-71
2022/04/18 07:34:49;;;;;;;3.13;1.80;;;;;;;5.85;55.94;95006.78;5032174;28;20565;-70
2022/04/18 07:37:14;;;;;;;4.78;2.05;;;;;;;5.88;56.20;95008.31;5067454;28;20029;-70
2022/04/18 07:39:39;;;;;;;6.30;2.05;;;;;;;5.88;55.39;95014.47;5066888;28;20024;-70
2022/04/18 07:42:05;;;;;;;3.38;1.60;;;;;;;5.82;54.99;95010.59;5049612;28;20035;-71
2022/04/18 07:44:30;;;;;;;3.20;2.00;;;;;;;5.53;56.11;95019.75;5048928;28;20130;-71
2022/04/18 07:46:57;;;;;;;3.33;2.00;;;;;;;5.51;55.56;95024.41;5066761;28;20403;-70
2022/04/18 07:49:22;;;;;;;3.00;1.88;;;;;;;5.31;57.17;95023.72;5067629;28;20100;-70
2022/04/18 07:51:47;;;;;;;3.00;1.92;;;;;;;5.40;57.12;95024.66;5066240;28;20024;-71
2022/04/18 07:54:17;;;;;;;3.40;1.80;;;;;;;5.38;56.49;95029.28;5067461;28;20025;-69
2022/04/18 07:56:43;;;;;;;3.08;1.50;;;;;;;5.15;56.05;95029.75;5066265;28;20521;-70
2022/04/18 07:59:09;;;;;;;2.53;1.55;;;;;;;5.26;56.41;95021.53;5067191;28;20421;-70
2022/04/18 08:01:34;;;;;;;2.97;1.70;;;;;;;5.17;55.86;95030.44;5048513;28;20028;-71
2022/04/18 08:04:01;;;;;;;3.28;1.90;;;;;;;5.36;55.71;95025.94;5048921;28;20112;-71
2022/04/18 08:06:27;;;;;;;2.55;1.33;;;;;;;5.28;55.31;95024.88;5065233;28;20039;-71
2022/04/18 08:08:52;;;;;;;2.63;1.40;;;;;;;5.40;55.25;95028.13;5048077;28;20037;-71
2022/04/18 08:11:18;;;;;;;2.58;1.40;;;;;;;5.55;54.98;95012.44;5067412;28;20012;-70
2022/04/18 08:13:44;;;;;;;2.00;1.17;;;;;;;5.52;54.95;95025.22;5066160;28;20036;-71
2022/04/18 08:16:10;;;;;;;2.40;1.38;;;;;;;5.53;54.86;95022.41;5066569;28;20087;-69
2022/04/18 08:18:38;;;;;;;3.17;1.48;;;;;;;5.55;55.36;95019.59;5066199;28;20089;-70
2022/04/18 08:21:03;;;;;;;2.72;1.60;;;;;;;5.55;55.81;95020.44;5066422;28;20027;-70
2022/04/18 08:23:30;;;;;;;1.48;0.95;;;;;;;5.42;54.96;95018.16;5066318;28;20028;-71
2022/04/18 08:25:55;;;;;;;5.20;1.35;;;;;;;5.56;54.35;95022.09;5065925;28;20033;-69
2022/04/18 08:28:21;;;;;;;3.75;1.38;;;;;;;5.65;55.17;95017.66;5066587;28;20028;-73
2022/04/18 08:30:46;;;;;;;3.05;1.50;;;;;;;5.64;54.32;95017.81;5065872;28;20404;-71
2022/04/18 08:33:12;;;;;;;2.47;1.30;;;;;;;5.69;54.03;95004.88;5048438;28;20048;-72
2022/04/18 08:35:37;;;;;;;2.45;1.25;;;;;;;5.67;55.00;95009.53;5031233;28;20028;-71
2022/04/18 08:38:03;;;;;;;4.97;1.42;;;;;;;5.81;55.07;95008.94;5066231;28;20024;-71
2022/04/18 08:40:28;;;;;;;2.67;1.60;;;;;;;5.93;54.10;95011.34;5047851;28;20453;-72
2022/04/18 08:42:57;;;;;;;2.60;1.42;;;;;;;6.05;53.86;95007.44;5048362;28;20029;-71
2022/04/18 08:45:24;;;;;;;2.20;1.33;;;;;;;6.10;52.80;95014.09;5031941;28;20070;-71
2022/04/18 08:53:28;;;;;;;1.98;1.00;;;;;;;6.20;52.76;95009.50;5015510;28;20048;-70
2022/04/18 08:55:54;;;;;;;2.83;0.90;;;;;;;6.23;52.99;95016.31;5065916;28;20580;-70
2022/04/18 08:58:21;;;;;;;2.25;1.08;;;;;;;6.32;52.05;95009.22;5031201;28;20410;-68
2022/04/18 09:00:46;;;;;;;1.75;0.90;;;;;;;6.43;51.61;95006.25;5065089;28;20040;-71
2022/04/18 09:03:12;;;;;;;3.30;0.80;;;;;;;6.52;49.77;94999.09;5047847;28;20043;-71
2022/04/18 09:05:37;;;;;;;1.95;0.98;;;;;;;6.46;50.10;94997.94;5065337;28;20028;-71
2022/04/18 09:08:05;;;;;;;1.92;1.00;;;;;;;6.55;50.82;94996.09;5065505;28;20032;-70
2022/04/18 09:10:31;;;;;;;1.98;0.80;;;;;;;6.67;50.80;94986.00;5065355;28;20028;-69
2022/04/18 09:13:03;;;;;;;2.13;0.95;;;;;;;6.76;50.85;94989.50;5047900;28;20059;-71
2022/04/18 09:15:51;;;;;;;1.95;0.93;;;;;;;6.66;49.85;94989.63;5047364;28;20035;-70
2022/04/18 09:18:21;;;;;;;2.85;1.10;;;;;;;6.63;50.67;94990.81;5047213;28;20028;-71
2022/04/18 09:20:54;;;;;;;3.47;1.00;;;;;;;6.64;50.27;94994.31;5065508;28;20029;-70
2022/04/18 09:23:24;;;;;;;2.13;1.17;;;;;;;6.57;49.61;94980.81;5031154;28;20025;-70
2022/04/18 09:25:54;;;;;;;5.30;1.10;;;;;;;6.64;50.40;94986.31;5065257;28;20415;-70
2022/04/18 09:28:25;;;;;;;7.25;1.30;;;;;;;6.70;49.98;94985.66;5046724;28;20348;-70
2022/04/18 09:31:05;;;;;;;1.58;0.85;;;;;;;6.76;50.70;94998.31;5031079;28;20464;-71
2022/04/18 09:33:37;;;;;;;2.03;0.88;;;;;;;6.88;48.56;94979.34;5065315;28;20112;-69
2022/04/18 09:36:17;;;;;;;3.42;0.90;;;;;;;6.85;48.81;94979.69;5047705;28;20028;-71
2022/04/18 09:38:53;;;;;;;4.18;1.08;;;;;;;6.96;49.33;94973.19;5047297;28;20109;-70
2022/04/18 09:41:22;;;;;;;1.77;0.95;;;;;;;7.01;47.76;94979.69;5064792;28;20020;-70
2022/04/18 09:43:49;;;;;;;1.50;0.82;;;;;;;6.98;47.08;94977.34;5064970;28;20166;-69
2022/04/18 09:46:15;;;;;;;3.28;0.90;;;;;;;6.90;47.97;94977.38;5064955;28;20027;-70
2022/04/18 09:48:44;;;;;;;4.35;0.98;;;;;;;6.87;49.33;94975.00;5046406;28;20056;-70
2022/04/18 09:51:12;;;;;;;2.47;1.45;;;;;;;6.92;50.84;94978.00;5065161;28;20223;-70
2022/04/18 09:53:43;;;;;;;6.72;1.25;;;;;;;6.89;51.11;94978.34;5064705;28;20020;-70
2022/04/18 09:56:13;;;;;;;2.92;1.25;;;;;;;6.90;50.37;94974.69;5065094;28;20404;-70
2022/04/18 09:58:39;;;;;;;4.30;1.20;;;;;;;7.05;49.90;94974.84;5030414;28;20021;-71
2022/04/18 10:01:05;;;;;;;1.73;1.05;;;;;;;6.91;48.46;94969.19;5046553;28;20070;-72
2022/04/18 10:03:31;;;;;;;6.88;1.27;;;;;;;6.92;48.97;94964.69;5046667;28;20020;-69
2022/04/18 10:05:56;;;;;;;9.32;1.42;;;;;;;6.98;51.28;94972.00;5063802;28;20101;-70
2022/04/18 10:08:21;;;;;;;6.22;1.23;;;;;;;7.03;50.94;94967.03;5030525;28;20028;-72
2022/04/18 10:10:47;;;;;;;1.70;1.00;;;;;;;6.92;50.62;94968.19;5064533;28;20418;-71
2022/04/18 10:13:13;;;;;;;5.03;1.40;;;;;;;6.94;50.01;94962.69;5030594;28;20024;-69
2022/04/18 10:15:39;;;;;;;1.73;1.10;;;;;;;6.90;49.35;94964.84;5064196;28;20032;-70
2022/04/18 10:18:06;;;;;;;5.85;1.85;;;;;;;7.02;51.22;94967.19;5064858;28;20078;-69
2022/04/18 10:20:46;;;;;;;4.25;1.55;;;;;;;6.90;49.57;94959.50;5064473;28;20079;-70
2022/04/18 10:23:42;;;;;;;2.25;1.27;;;;;;;6.87;49.62;94953.69;5046347;28;20098;-71
2022/04/18 10:26:47;;;;;;;6.13;1.50;;;;;;;6.99;50.70;94959.53;5064802;28;20056;-71
2022/04/18 10:29:15;;;;;;;5.03;1.42;;;;;;;6.94;50.13;94957.34;5066368;28;20047;-70
2022/04/18 10:31:40;;;;;;;4.85;1.58;;;;;;;7.15;51.57;94951.53;5068077;28;20032;-71
2022/04/18 10:34:06;;;;;;;3.05;1.70;;;;;;;7.29;48.65;94958.00;5051167;28;20021;-68
2022/04/18 10:36:33;;;;;;;4.47;1.40;;;;;;;7.38;48.05;94953.50;5067946;28;20032;-70
2022/04/18 10:39:06;;;;;;;1.77;1.10;;;;;;;7.38;48.53;94947.34;5069054;28;20399;-70
2022/04/18 10:41:38;;;;;;;1.73;1.00;;;;;;;7.28;47.27;94951.03;5067853;28;20087;-70
2022/04/18 10:44:10;;;;;;;5.40;1.75;;;;;;;7.33;48.80;94952.34;5068443;28;20402;-70
2022/04/18 10:46:38;;;;;;;2.25;1.15;;;;;;;7.37;47.26;94945.66;5068181;28;20571;-71
2022/04/18 10:49:20;;;;;;;3.70;1.30;;;;;;;7.41;47.29;94944.34;5067738;28;20036;-70
2022/04/18 10:51:46;;;;;;;1.70;1.20;;;;;;;7.32;47.44;94942.69;5050177;28;20040;-70
2022/04/18 10:54:30;;;;;;;2.03;1.10;;;;;;;7.23;47.64;94937.34;5067822;28;20424;-69
2022/04/18 10:57:11;;;;;;;2.20;1.05;;;;;;;7.35;45.82;94939.69;5068464;28;20024;-70
2022/04/18 10:59:45;;;;;;;1.52;0.90;;;;;;;7.38;46.20;94929.47;5068055;28;20035;-71
2022/04/18 11:02:37;;;;;;;2.33;1.05;;;;;;;7.34;46.24;94938.84;5050083;28;20613;-69
2022/04/18 11:05:02;;;;;;;2.38;1.20;;;;;;;7.36;46.60;94942.16;5050303;28;20406;-70
2022/04/18 11:07:40;;;;;;;1.90;1.02;;;;;;;7.43;46.94;94945.00;5067424;28;20530;-71
2022/04/18 11:10:19;;;;;;;1.52;0.80;;;;;;;7.26;46.16;94936.16;5049885;28;20054;-69
2022/04/18 11:12:44;;;;;;;1.92;1.00;;;;;;;7.23;45.42;94929.34;5067799;28;20029;-70
2022/04/18 11:15:10;;;;;;;1.65;0.90;;;;;;;7.14;44.07;94931.19;5049134;28;20028;-68
2022/04/18 11:17:41;;;;;;;3.83;2.10;;;;;;;7.08;45.33;94933.72;5050185;28;20025;-70
2022/04/18 11:20:29;;;;;;;2.85;1.60;;;;;;;7.13;46.15;94931.34;5067460;28;20483;-70
2022/04/18 11:23:30;;;;;;;2.85;1.38;;;;;;;7.23;45.76;94925.84;5067541;28;20479;-71
2022/04/18 11:26:03;;;;;;;2.65;1.30;;;;;;;7.25;44.86;94922.03;5067562;28;20101;-70
2022/04/18 11:28:35;;;;;;;3.22;1.20;;;;;;;7.29;45.18;94918.00;5067169;28;20125;-70
2022/04/18 11:31:06;;;;;;;4.45;1.70;;;;;;;7.33;45.28;94923.00;5067626;28;20029;-70
2022/04/18 11:33:36;;;;;;;4.03;1.77;;;;;;;7.37;45.33;94921.66;5049999;28;20115;-70
2022/04/18 11:36:02;;;;;;;5.47;2.50;;;;;;;7.33;44.50;94923.84;5048917;28;20434;-70
2022/04/18 11:38:27;;;;;;;4.40;1.48;;;;;;;7.41;44.55;94923.81;5049615;28;20499;-71
2022/04/18 11:40:53;;;;;;;3.22;1.92;;;;;;;7.37;45.48;94926.97;5066395;28;20054;-71
2022/04/18 11:43:18;;;;;;;2.78;1.77;;;;;;;7.33;46.54;94926.50;5049774;28;20446;-70
2022/04/18 11:45:43;;;;;;;3.03;1.63;;;;;;;7.09;47.21;94919.38;5066653;28;20479;-70
2022/04/18 11:48:12;;;;;;;5.03;1.67;;;;;;;7.14;46.76;94930.38;5067339;28;20548;-69
2022/04/18 11:50:41;;;;;;;4.68;1.75;;;;;;;7.12;47.33;94924.34;5032247;28;20055;-69
2022/04/18 11:53:07;;;;;;;3.55;1.70;;;;;;;7.10;48.10;94913.00;5067109;28;20050;-69
2022/04/18 11:55:53;;;;;;;3.20;1.77;;;;;;;7.14;48.43;94914.38;5066958;28;20074;-70
2022/04/18 11:58:20;;;;;;;3.55;1.50;;;;;;;7.04;48.01;94918.00;5066123;28;20205;-71